Arthur, Nevada
Current Conditions -  °F | °C
As of 7:35 PM on Saturday 24 Jan 2015 (Local Time) from KENV Reporting Station
Overcast Overcast  
Wind Chill: 34°   Ceiling: 5000
Heat Index: 34°   Visibility: 10mi
Dew Point: 25°   Wind: 3mph
Humidity: 70%   Direction: 170°S
Pressure: 30.47"   Gusts: NA
Location:  41.0114°N, 114.57°W
Report Text: KENV 250335Z AUTO 17003KT 10SM OVC050 01/M04 A3047 RMK AO1
Loading
Personal Weather Stations






























Interactive Weather Map New forecast layout! Learn more

10-Day Weather Forecast

Advertisements
Track Severe Weather on mobile